Delhi, Canada
Current Conditions -  °F | °C
As of 8:00 PM on Saturday 25 Oct 2014 (Local Time) from CYXU Reporting Station
Clear Clear  
Wind Chill: 55°   Ceiling: Unl
Heat Index: 55°   Visibility: 15mi
Dew Point: 41°   Wind: 9mph
Humidity: 58%   Direction: 300°WNW
Pressure: 29.68"   Gusts: 20mph
Location:  42.85°N, 80.49°W
Report Text: CYXU 260000Z 30008G17KT 15SM SKC 13/05 A2968 RMK SLP054 DENSITY ALT 1100FT
Loading
Personal Weather Stations






























Interactive Weather Map
Tropical Storm Tracking
New forecast layout! Learn more

10-Day Weather Forecast

Advertisements
Track Severe Weather on mobile